sensor_id;sensor_type;location;lat;lon;timestamp;temperature;humidity
31729;DHT22;18309;43.658;1.312;2023-02-01T00:01:40;9.50;99.90
31729;DHT22;18309;43.658;1.312;2023-02-01T00:04:05;9.50;99.90
31729;DHT22;18309;43.658;1.312;2023-02-01T00:06:32;9.50;99.90
31729;DHT22;18309;43.658;1.312;2023-02-01T00:08:58;9.50;99.90
31729;DHT22;18309;43.658;1.312;2023-02-01T00:11:24;9.50;99.90
31729;DHT22;18309;43.658;1.312;2023-02-01T00:13:50;9.50;99.90
31729;DHT22;18309;43.658;1.312;2023-02-01T00:16:18;9.50;99.90
31729;DHT22;18309;43.658;1.312;2023-02-01T00:18:45;9.50;99.90
31729;DHT22;18309;43.658;1.312;2023-02-01T00:21:13;9.50;99.90
31729;DHT22;18309;43.658;1.312;2023-02-01T00:23:39;9.50;99.90
31729;DHT22;18309;43.658;1.312;2023-02-01T00:26:10;9.50;99.90
31729;DHT22;18309;43.658;1.312;2023-02-01T00:28:38;9.50;99.90
31729;DHT22;18309;43.658;1.312;2023-02-01T00:31:04;9.50;99.90
31729;DHT22;18309;43.658;1.312;2023-02-01T00:33:31;9.50;99.90
31729;DHT22;18309;43.658;1.312;2023-02-01T00:36:01;9.50;99.90
31729;DHT22;18309;43.658;1.312;2023-02-01T00:38:28;9.50;99.90
31729;DHT22;18309;43.658;1.312;2023-02-01T00:40:54;9.50;99.90
31729;DHT22;18309;43.658;1.312;2023-02-01T00:43:26;9.50;99.90
31729;DHT22;18309;43.658;1.312;2023-02-01T00:45:52;9.50;99.90
31729;DHT22;18309;43.658;1.312;2023-02-01T00:48:18;9.50;99.90
31729;DHT22;18309;43.658;1.312;2023-02-01T00:50:44;9.50;99.90
31729;DHT22;18309;43.658;1.312;2023-02-01T00:53:10;9.50;99.90
31729;DHT22;18309;43.658;1.312;2023-02-01T00:55:36;9.50;99.90
31729;DHT22;18309;43.658;1.312;2023-02-01T00:58:02;9.50;99.90
31729;DHT22;18309;43.658;1.312;2023-02-01T01:00:31;9.50;99.90
31729;DHT22;18309;43.658;1.312;2023-02-01T01:02:57;9.50;99.90
31729;DHT22;18309;43.658;1.312;2023-02-01T01:05:23;9.50;99.90
31729;DHT22;18309;43.658;1.312;2023-02-01T01:07:49;9.50;99.90
31729;DHT22;18309;43.658;1.312;2023-02-01T01:10:15;9.50;99.90
31729;DHT22;18309;43.658;1.312;2023-02-01T01:12:41;9.50;99.90
31729;DHT22;18309;43.658;1.312;2023-02-01T01:15:07;9.50;99.90
31729;DHT22;18309;43.658;1.312;2023-02-01T01:17:33;9.50;99.90
31729;DHT22;18309;43.658;1.312;2023-02-01T01:19:58;9.50;99.90
31729;DHT22;18309;43.658;1.312;2023-02-01T01:22:24;9.50;99.90
31729;DHT22;18309;43.658;1.312;2023-02-01T01:24:50;9.50;99.90
31729;DHT22;18309;43.658;1.312;2023-02-01T01:27:15;9.50;99.90
31729;DHT22;18309;43.658;1.312;2023-02-01T01:29:48;9.50;99.90
31729;DHT22;18309;43.658;1.312;2023-02-01T01:32:13;9.50;99.90
31729;DHT22;18309;43.658;1.312;2023-02-01T01:34:39;9.50;99.90
31729;DHT22;18309;43.658;1.312;2023-02-01T01:37:05;9.50;99.90
31729;DHT22;18309;43.658;1.312;2023-02-01T01:39:30;9.50;99.90
31729;DHT22;18309;43.658;1.312;2023-02-01T01:41:56;9.50;99.90
31729;DHT22;18309;43.658;1.312;2023-02-01T01:47:23;9.50;99.90
31729;DHT22;18309;43.658;1.312;2023-02-01T01:49:50;9.50;99.90
31729;DHT22;18309;43.658;1.312;2023-02-01T01:52:16;9.40;99.90
31729;DHT22;18309;43.658;1.312;2023-02-01T01:54:45;9.50;99.90
31729;DHT22;18309;43.658;1.312;2023-02-01T01:57:18;9.50;99.90
31729;DHT22;18309;43.658;1.312;2023-02-01T01:59:48;9.40;99.90
31729;DHT22;18309;43.658;1.312;2023-02-01T02:02:15;9.40;99.90
31729;DHT22;18309;43.658;1.312;2023-02-01T02:04:41;9.50;99.90
31729;DHT22;18309;43.658;1.312;2023-02-01T02:07:23;9.40;99.90
31729;DHT22;18309;43.658;1.312;2023-02-01T02:09:50;9.40;99.90
31729;DHT22;18309;43.658;1.312;2023-02-01T02:12:16;9.50;99.90
31729;DHT22;18309;43.658;1.312;2023-02-01T02:14:42;9.50;99.90
31729;DHT22;18309;43.658;1.312;2023-02-01T02:37:42;9.40;99.90
31729;DHT22;18309;43.658;1.312;2023-02-01T02:49:08;9.40;99.90
31729;DHT22;18309;43.658;1.312;2023-02-01T02:54:45;9.40;99.90
31729;DHT22;18309;43.658;1.312;2023-02-01T02:57:34;9.40;99.90
31729;DHT22;18309;43.658;1.312;2023-02-01T03:00:22;9.40;99.90
31729;DHT22;18309;43.658;1.312;2023-02-01T03:03:08;9.40;99.90
31729;DHT22;18309;43.658;1.312;2023-02-01T03:05:52;9.40;99.90
31729;DHT22;18309;43.658;1.312;2023-02-01T03:08:28;9.40;99.90
31729;DHT22;18309;43.658;1.312;2023-02-01T03:16:35;9.40;99.90
31729;DHT22;18309;43.658;1.312;2023-02-01T03:24:11;9.30;99.90
31729;DHT22;18309;43.658;1.312;2023-02-01T03:26:41;9.30;99.90
31729;DHT22;18309;43.658;1.312;2023-02-01T03:29:15;9.30;99.90
31729;DHT22;18309;43.658;1.312;2023-02-01T03:31:42;9.30;99.90
31729;DHT22;18309;43.658;1.312;2023-02-01T03:34:10;9.30;99.90
31729;DHT22;18309;43.658;1.312;2023-02-01T03:36:46;9.30;99.90
31729;DHT22;18309;43.658;1.312;2023-02-01T03:42:24;9.30;99.90
31729;DHT22;18309;43.658;1.312;2023-02-01T03:45:06;9.30;99.90
31729;DHT22;18309;43.658;1.312;2023-02-01T03:47:37;9.30;99.90
31729;DHT22;18309;43.658;1.312;2023-02-01T03:50:08;9.30;99.90
31729;DHT22;18309;43.658;1.312;2023-02-01T03:52:41;9.30;99.90
31729;DHT22;18309;43.658;1.312;2023-02-01T03:55:09;9.30;99.90
31729;DHT22;18309;43.658;1.312;2023-02-01T03:57:40;9.30;99.90
31729;DHT22;18309;43.658;1.312;2023-02-01T04:00:14;9.30;99.90
31729;DHT22;18309;43.658;1.312;2023-02-01T04:02:40;9.30;99.90
31729;DHT22;18309;43.658;1.312;2023-02-01T04:05:06;9.30;99.90
31729;DHT22;18309;43.658;1.312;2023-02-01T04:07:32;9.30;99.90
31729;DHT22;18309;43.658;1.312;2023-02-01T04:09:57;9.30;99.90
31729;DHT22;18309;43.658;1.312;2023-02-01T04:12:23;9.30;99.90
31729;DHT22;18309;43.658;1.312;2023-02-01T04:14:49;9.30;99.90
31729;DHT22;18309;43.658;1.312;2023-02-01T04:17:14;9.30;99.90
31729;DHT22;18309;43.658;1.312;2023-02-01T04:19:40;9.30;99.90
31729;DHT22;18309;43.658;1.312;2023-02-01T04:22:06;9.30;99.90
31729;DHT22;18309;43.658;1.312;2023-02-01T04:24:31;9.30;99.90
31729;DHT22;18309;43.658;1.312;2023-02-01T04:26:57;9.30;99.90
31729;DHT22;18309;43.658;1.312;2023-02-01T04:29:23;9.30;99.90
31729;DHT22;18309;43.658;1.312;2023-02-01T04:31:48;9.30;99.90
31729;DHT22;18309;43.658;1.312;2023-02-01T04:34:14;9.30;99.90
31729;DHT22;18309;43.658;1.312;2023-02-01T04:36:40;9.30;99.90
31729;DHT22;18309;43.658;1.312;2023-02-01T04:39:06;9.30;99.90
31729;DHT22;18309;43.658;1.312;2023-02-01T04:41:32;9.30;99.90
31729;DHT22;18309;43.658;1.312;2023-02-01T04:43:57;9.30;99.90
31729;DHT22;18309;43.658;1.312;2023-02-01T04:46:23;9.30;99.90
31729;DHT22;18309;43.658;1.312;2023-02-01T04:48:48;9.30;99.90
31729;DHT22;18309;43.658;1.312;2023-02-01T04:51:14;9.30;99.90
31729;DHT22;18309;43.658;1.312;2023-02-01T04:53:40;9.30;99.90
31729;DHT22;18309;43.658;1.312;2023-02-01T04:56:06;9.20;99.90
31729;DHT22;18309;43.658;1.312;2023-02-01T04:58:32;9.30;99.90
31729;DHT22;18309;43.658;1.312;2023-02-01T05:00:58;9.30;99.90
31729;DHT22;18309;43.658;1.312;2023-02-01T05:03:24;9.20;99.90
31729;DHT22;18309;43.658;1.312;2023-02-01T05:05:49;9.20;99.90
31729;DHT22;18309;43.658;1.312;2023-02-01T05:08:15;9.20;99.90
31729;DHT22;18309;43.658;1.312;2023-02-01T05:10:41;9.20;99.90
31729;DHT22;18309;43.658;1.312;2023-02-01T05:13:08;9.20;99.90
31729;DHT22;18309;43.658;1.312;2023-02-01T05:15:52;9.20;99.90
31729;DHT22;18309;43.658;1.312;2023-02-01T05:18:18;9.20;99.90
31729;DHT22;18309;43.658;1.312;2023-02-01T05:20:43;9.20;99.90
31729;DHT22;18309;43.658;1.312;2023-02-01T05:23:09;9.20;99.90
31729;DHT22;18309;43.658;1.312;2023-02-01T05:25:35;9.20;99.90
31729;DHT22;18309;43.658;1.312;2023-02-01T05:28:00;9.20;99.90
31729;DHT22;18309;43.658;1.312;2023-02-01T05:30:26;9.20;99.90
31729;DHT22;18309;43.658;1.312;2023-02-01T05:32:52;9.10;99.90
31729;DHT22;18309;43.658;1.312;2023-02-01T05:35:19;9.10;99.90
31729;DHT22;18309;43.658;1.312;2023-02-01T05:37:44;9.10;99.90
31729;DHT22;18309;43.658;1.312;2023-02-01T05:40:10;9.20;99.90
31729;DHT22;18309;43.658;1.312;2023-02-01T05:42:36;9.10;99.90
31729;DHT22;18309;43.658;1.312;2023-02-01T05:45:02;9.10;99.90
31729;DHT22;18309;43.658;1.312;2023-02-01T05:47:30;9.10;99.90
31729;DHT22;18309;43.658;1.312;2023-02-01T05:49:56;9.10;99.90
31729;DHT22;18309;43.658;1.312;2023-02-01T05:52:22;9.10;99.90
31729;DHT22;18309;43.658;1.312;2023-02-01T05:54:48;9.10;99.90
31729;DHT22;18309;43.658;1.312;2023-02-01T05:57:15;9.10;99.90
31729;DHT22;18309;43.658;1.312;2023-02-01T05:59:40;9.10;99.90
31729;DHT22;18309;43.658;1.312;2023-02-01T06:02:10;9.10;99.90
31729;DHT22;18309;43.658;1.312;2023-02-01T06:04:36;9.10;99.90
31729;DHT22;18309;43.658;1.312;2023-02-01T06:07:02;9.10;99.90
31729;DHT22;18309;43.658;1.312;2023-02-01T06:09:27;9.10;99.90
31729;DHT22;18309;43.658;1.312;2023-02-01T06:11:54;9.10;99.90
31729;DHT22;18309;43.658;1.312;2023-02-01T06:14:20;9.10;99.90
31729;DHT22;18309;43.658;1.312;2023-02-01T06:16:45;9.10;99.90
31729;DHT22;18309;43.658;1.312;2023-02-01T06:19:12;9.10;99.90
31729;DHT22;18309;43.658;1.312;2023-02-01T06:21:38;9.10;99.90
31729;DHT22;18309;43.658;1.312;2023-02-01T06:24:04;9.10;99.90
31729;DHT22;18309;43.658;1.312;2023-02-01T06:26:30;9.10;99.90
31729;DHT22;18309;43.658;1.312;2023-02-01T06:28:56;9.00;99.90
31729;DHT22;18309;43.658;1.312;2023-02-01T06:31:22;9.00;99.90
31729;DHT22;18309;43.658;1.312;2023-02-01T06:33:48;9.10;99.90
31729;DHT22;18309;43.658;1.312;2023-02-01T06:36:15;9.10;99.90
31729;DHT22;18309;43.658;1.312;2023-02-01T06:38:41;9.10;99.90
31729;DHT22;18309;43.658;1.312;2023-02-01T06:41:07;9.10;99.90
31729;DHT22;18309;43.658;1.312;2023-02-01T06:43:34;9.10;99.90
31729;DHT22;18309;43.658;1.312;2023-02-01T06:46:06;9.10;99.90
31729;DHT22;18309;43.658;1.312;2023-02-01T06:48:32;9.10;99.90
31729;DHT22;18309;43.658;1.312;2023-02-01T06:50:58;9.00;99.90
31729;DHT22;18309;43.658;1.312;2023-02-01T06:53:24;9.10;99.90
31729;DHT22;18309;43.658;1.312;2023-02-01T06:58:19;9.10;99.90
31729;DHT22;18309;43.658;1.312;2023-02-01T07:00:44;9.10;99.90
31729;DHT22;18309;43.658;1.312;2023-02-01T07:03:10;9.00;99.90
31729;DHT22;18309;43.658;1.312;2023-02-01T07:05:36;9.10;99.90
31729;DHT22;18309;43.658;1.312;2023-02-01T07:08:01;9.00;99.90
31729;DHT22;18309;43.658;1.312;2023-02-01T07:10:27;9.10;99.90
31729;DHT22;18309;43.658;1.312;2023-02-01T07:12:56;9.00;99.90
31729;DHT22;18309;43.658;1.312;2023-02-01T07:15:22;9.00;99.90
31729;DHT22;18309;43.658;1.312;2023-02-01T07:17:48;9.00;99.90
31729;DHT22;18309;43.658;1.312;2023-02-01T07:20:15;9.00;99.90
31729;DHT22;18309;43.658;1.312;2023-02-01T07:22:41;9.00;99.90
31729;DHT22;18309;43.658;1.312;2023-02-01T07:25:07;9.00;99.90
31729;DHT22;18309;43.658;1.312;2023-02-01T07:27:36;9.00;99.90
31729;DHT22;18309;43.658;1.312;2023-02-01T07:30:06;9.00;99.90
31729;DHT22;18309;43.658;1.312;2023-02-01T07:32:32;9.00;99.90
31729;DHT22;18309;43.658;1.312;2023-02-01T07:34:58;9.00;99.90
31729;DHT22;18309;43.658;1.312;2023-02-01T07:37:24;9.10;99.90
31729;DHT22;18309;43.658;1.312;2023-02-01T07:39:53;9.00;99.90
31729;DHT22;18309;43.658;1.312;2023-02-01T07:42:18;9.00;99.90
31729;DHT22;18309;43.658;1.312;2023-02-01T07:44:44;9.00;99.90
31729;DHT22;18309;43.658;1.312;2023-02-01T07:47:10;9.00;99.90
31729;DHT22;18309;43.658;1.312;2023-02-01T07:49:35;9.00;99.90
31729;DHT22;18309;43.658;1.312;2023-02-01T07:52:01;9.00;99.90
31729;DHT22;18309;43.658;1.312;2023-02-01T07:54:26;9.00;99.90
31729;DHT22;18309;43.658;1.312;2023-02-01T07:56:52;9.00;99.90
31729;DHT22;18309;43.658;1.312;2023-02-01T07:59:18;9.00;99.90
31729;DHT22;18309;43.658;1.312;2023-02-01T08:01:44;9.00;99.90
31729;DHT22;18309;43.658;1.312;2023-02-01T08:04:11;9.10;99.90
31729;DHT22;18309;43.658;1.312;2023-02-01T08:06:38;9.00;99.90
31729;DHT22;18309;43.658;1.312;2023-02-01T08:09:05;9.10;99.90
31729;DHT22;18309;43.658;1.312;2023-02-01T08:11:31;9.00;99.90
31729;DHT22;18309;43.658;1.312;2023-02-01T08:13:58;9.00;99.90
31729;DHT22;18309;43.658;1.312;2023-02-01T08:16:24;9.00;99.90
31729;DHT22;18309;43.658;1.312;2023-02-01T08:18:51;9.00;99.90
31729;DHT22;18309;43.658;1.312;2023-02-01T08:21:23;9.00;99.90
31729;DHT22;18309;43.658;1.312;2023-02-01T08:23:49;9.10;99.90
31729;DHT22;18309;43.658;1.312;2023-02-01T08:26:18;9.00;99.90
31729;DHT22;18309;43.658;1.312;2023-02-01T08:28:47;9.10;99.90
31729;DHT22;18309;43.658;1.312;2023-02-01T08:31:15;9.10;99.90
31729;DHT22;18309;43.658;1.312;2023-02-01T08:33:42;9.10;99.90
31729;DHT22;18309;43.658;1.312;2023-02-01T08:36:09;9.10;99.90
31729;DHT22;18309;43.658;1.312;2023-02-01T08:38:37;9.10;99.90
31729;DHT22;18309;43.658;1.312;2023-02-01T08:41:17;9.10;99.90
31729;DHT22;18309;43.658;1.312;2023-02-01T08:43:45;9.10;99.90
31729;DHT22;18309;43.658;1.312;2023-02-01T08:46:12;9.10;99.90
31729;DHT22;18309;43.658;1.312;2023-02-01T08:48:38;9.10;99.90
31729;DHT22;18309;43.658;1.312;2023-02-01T08:51:09;9.10;99.90
31729;DHT22;18309;43.658;1.312;2023-02-01T08:53:35;9.00;99.90
31729;DHT22;18309;43.658;1.312;2023-02-01T08:56:24;9.10;99.90
31729;DHT22;18309;43.658;1.312;2023-02-01T08:58:50;9.00;99.90
31729;DHT22;18309;43.658;1.312;2023-02-01T09:01:17;9.10;99.90
31729;DHT22;18309;43.658;1.312;2023-02-01T09:03:42;9.10;99.90
31729;DHT22;18309;43.658;1.312;2023-02-01T09:06:11;9.10;99.90
31729;DHT22;18309;43.658;1.312;2023-02-01T09:08:37;9.10;99.90
31729;DHT22;18309;43.658;1.312;2023-02-01T09:11:06;9.10;99.90
31729;DHT22;18309;43.658;1.312;2023-02-01T09:13:32;9.10;99.90
31729;DHT22;18309;43.658;1.312;2023-02-01T09:15:59;9.10;99.90
31729;DHT22;18309;43.658;1.312;2023-02-01T09:18:25;9.10;99.90
31729;DHT22;18309;43.658;1.312;2023-02-01T09:20:51;9.10;99.90
31729;DHT22;18309;43.658;1.312;2023-02-01T09:23:17;9.10;99.90
31729;DHT22;18309;43.658;1.312;2023-02-01T09:25:43;9.10;99.70
31729;DHT22;18309;43.658;1.312;2023-02-01T09:28:08;9.10;99.90
31729;DHT22;18309;43.658;1.312;2023-02-01T09:30:35;9.10;99.90
31729;DHT22;18309;43.658;1.312;2023-02-01T09:33:01;9.10;99.90
31729;DHT22;18309;43.658;1.312;2023-02-01T09:35:27;9.10;99.90
31729;DHT22;18309;43.658;1.312;2023-02-01T09:37:53;9.10;99.80
31729;DHT22;18309;43.658;1.312;2023-02-01T09:40:19;9.10;99.90
31729;DHT22;18309;43.658;1.312;2023-02-01T09:48:32;9.10;99.90
31729;DHT22;18309;43.658;1.312;2023-02-01T09:51:04;9.20;99.90
31729;DHT22;18309;43.658;1.312;2023-02-01T09:53:42;9.20;99.90
31729;DHT22;18309;43.658;1.312;2023-02-01T09:56:20;9.20;99.60
31729;DHT22;18309;43.658;1.312;2023-02-01T09:59:17;9.20;99.50
31729;DHT22;18309;43.658;1.312;2023-02-01T10:01:45;9.20;99.50
31729;DHT22;18309;43.658;1.312;2023-02-01T10:04:13;9.20;99.50
31729;DHT22;18309;43.658;1.312;2023-02-01T10:20:30;9.30;99.70
31729;DHT22;18309;43.658;1.312;2023-02-01T10:28:18;9.30;99.20
31729;DHT22;18309;43.658;1.312;2023-02-01T10:30:48;9.40;99.20
31729;DHT22;18309;43.658;1.312;2023-02-01T10:33:24;9.40;99.50
31729;DHT22;18309;43.658;1.312;2023-02-01T10:35:55;9.40;99.60
31729;DHT22;18309;43.658;1.312;2023-02-01T10:38:32;9.50;99.60
31729;DHT22;18309;43.658;1.312;2023-02-01T10:41:08;9.50;99.90
31729;DHT22;18309;43.658;1.312;2023-02-01T10:43:37;9.50;99.70
31729;DHT22;18309;43.658;1.312;2023-02-01T10:46:04;9.50;99.50
31729;DHT22;18309;43.658;1.312;2023-02-01T10:48:31;9.50;99.90
31729;DHT22;18309;43.658;1.312;2023-02-01T10:51:06;9.60;99.90
31729;DHT22;18309;43.658;1.312;2023-02-01T10:56:08;9.70;99.90
31729;DHT22;18309;43.658;1.312;2023-02-01T10:58:36;9.70;99.90
31729;DHT22;18309;43.658;1.312;2023-02-01T11:01:03;9.70;99.90
31729;DHT22;18309;43.658;1.312;2023-02-01T11:03:36;9.80;99.90
31729;DHT22;18309;43.658;1.312;2023-02-01T11:06:17;9.80;99.90
31729;DHT22;18309;43.658;1.312;2023-02-01T11:08:58;9.80;99.90
31729;DHT22;18309;43.658;1.312;2023-02-01T11:11:24;9.90;99.90
31729;DHT22;18309;43.658;1.312;2023-02-01T11:14:00;9.90;99.90
31729;DHT22;18309;43.658;1.312;2023-02-01T11:16:39;10.00;99.90
31729;DHT22;18309;43.658;1.312;2023-02-01T11:19:05;10.00;99.90
31729;DHT22;18309;43.658;1.312;2023-02-01T11:21:33;10.00;99.90
31729;DHT22;18309;43.658;1.312;2023-02-01T11:24:03;10.10;99.90
31729;DHT22;18309;43.658;1.312;2023-02-01T11:26:29;10.10;99.90
31729;DHT22;18309;43.658;1.312;2023-02-01T11:29:03;10.20;99.90
31729;DHT22;18309;43.658;1.312;2023-02-01T11:31:29;10.20;99.90
31729;DHT22;18309;43.658;1.312;2023-02-01T11:34:06;10.20;99.90
31729;DHT22;18309;43.658;1.312;2023-02-01T11:36:34;10.30;99.90
31729;DHT22;18309;43.658;1.312;2023-02-01T11:41:56;10.30;99.90
31729;DHT22;18309;43.658;1.312;2023-02-01T11:44:38;10.40;99.90
31729;DHT22;18309;43.658;1.312;2023-02-01T11:50:05;10.40;99.90
31729;DHT22;18309;43.658;1.312;2023-02-01T12:25:20;11.00;99.90
31729;DHT22;18309;43.658;1.312;2023-02-01T12:33:20;11.10;99.90
31729;DHT22;18309;43.658;1.312;2023-02-01T12:36:09;11.10;99.90
31729;DHT22;18309;43.658;1.312;2023-02-01T12:41:48;11.20;99.90
31729;DHT22;18309;43.658;1.312;2023-02-01T12:44:47;11.30;99.90
31729;DHT22;18309;43.658;1.312;2023-02-01T12:47:49;11.30;99.70
31729;DHT22;18309;43.658;1.312;2023-02-01T12:50:43;11.40;99.30
31729;DHT22;18309;43.658;1.312;2023-02-01T12:53:15;11.40;99.40
31729;DHT22;18309;43.658;1.312;2023-02-01T12:56:04;11.50;99.10
31729;DHT22;18309;43.658;1.312;2023-02-01T12:58:48;11.60;98.20
31729;DHT22;18309;43.658;1.312;2023-02-01T13:07:14;11.70;97.50
31729;DHT22;18309;43.658;1.312;2023-02-01T13:09:53;11.80;97.20
31729;DHT22;18309;43.658;1.312;2023-02-01T13:12:49;11.80;97.30
31729;DHT22;18309;43.658;1.312;2023-02-01T13:15:12;11.80;96.60
31729;DHT22;18309;43.658;1.312;2023-02-01T13:17:41;11.90;96.00
31729;DHT22;18309;43.658;1.312;2023-02-01T13:20:37;11.90;95.90
31729;DHT22;18309;43.658;1.312;2023-02-01T13:23:10;11.90;95.40
31729;DHT22;18309;43.658;1.312;2023-02-01T13:25:55;11.90;95.00
31729;DHT22;18309;43.658;1.312;2023-02-01T13:31:17;11.90;94.70
31729;DHT22;18309;43.658;1.312;2023-02-01T13:42:31;11.80;95.30
31729;DHT22;18309;43.658;1.312;2023-02-01T13:45:05;11.80;95.10
31729;DHT22;18309;43.658;1.312;2023-02-01T13:47:32;11.80;95.20
31729;DHT22;18309;43.658;1.312;2023-02-01T13:50:09;11.80;95.40
31729;DHT22;18309;43.658;1.312;2023-02-01T13:52:44;11.70;95.20
31729;DHT22;18309;43.658;1.312;2023-02-01T13:55:23;11.70;95.40
31729;DHT22;18309;43.658;1.312;2023-02-01T13:57:58;11.70;95.60
31729;DHT22;18309;43.658;1.312;2023-02-01T14:10:57;11.60;95.60
31729;DHT22;18309;43.658;1.312;2023-02-01T14:13:37;11.60;95.50
31729;DHT22;18309;43.658;1.312;2023-02-01T14:21:26;11.50;95.70
31729;DHT22;18309;43.658;1.312;2023-02-01T14:32:05;11.40;95.20
31729;DHT22;18309;43.658;1.312;2023-02-01T14:37:11;11.40;95.60
31729;DHT22;18309;43.658;1.312;2023-02-01T15:04:14;11.30;95.90
31729;DHT22;18309;43.658;1.312;2023-02-01T15:09:26;11.30;95.50
31729;DHT22;18309;43.658;1.312;2023-02-01T15:14:33;11.30;95.60
31729;DHT22;18309;43.658;1.312;2023-02-01T15:16:59;11.30;95.50
31729;DHT22;18309;43.658;1.312;2023-02-01T15:19:27;11.30;95.30
31729;DHT22;18309;43.658;1.312;2023-02-01T15:21:55;11.20;95.10
31729;DHT22;18309;43.658;1.312;2023-02-01T15:24:27;11.30;95.40
31729;DHT22;18309;43.658;1.312;2023-02-01T15:26:54;11.20;95.70
31729;DHT22;18309;43.658;1.312;2023-02-01T15:29:22;11.30;95.60
31729;DHT22;18309;43.658;1.312;2023-02-01T15:31:52;11.30;95.40
31729;DHT22;18309;43.658;1.312;2023-02-01T15:34:18;11.20;95.70
31729;DHT22;18309;43.658;1.312;2023-02-01T15:36:45;11.20;95.60
31729;DHT22;18309;43.658;1.312;2023-02-01T15:41:49;11.20;95.20
31729;DHT22;18309;43.658;1.312;2023-02-01T15:44:29;11.20;95.10
31729;DHT22;18309;43.658;1.312;2023-02-01T15:46:55;11.20;95.20
31729;DHT22;18309;43.658;1.312;2023-02-01T15:51:51;11.20;95.40
31729;DHT22;18309;43.658;1.312;2023-02-01T15:54:20;11.10;95.30
31729;DHT22;18309;43.658;1.312;2023-02-01T15:56:51;11.20;95.50
31729;DHT22;18309;43.658;1.312;2023-02-01T15:59:21;11.10;95.40
31729;DHT22;18309;43.658;1.312;2023-02-01T16:01:48;11.10;95.40
31729;DHT22;18309;43.658;1.312;2023-02-01T16:04:20;11.10;95.30
31729;DHT22;18309;43.658;1.312;2023-02-01T16:07:00;11.10;95.80
31729;DHT22;18309;43.658;1.312;2023-02-01T16:09:51;11.10;95.50
31729;DHT22;18309;43.658;1.312;2023-02-01T16:12:27;11.10;95.20
31729;DHT22;18309;43.658;1.312;2023-02-01T16:14:54;11.00;94.50
31729;DHT22;18309;43.658;1.312;2023-02-01T16:17:20;11.10;94.60
31729;DHT22;18309;43.658;1.312;2023-02-01T16:19:46;11.00;94.70
31729;DHT22;18309;43.658;1.312;2023-02-01T16:22:12;11.00;95.20
31729;DHT22;18309;43.658;1.312;2023-02-01T16:24:37;11.00;95.00
31729;DHT22;18309;43.658;1.312;2023-02-01T16:27:03;11.00;95.00
31729;DHT22;18309;43.658;1.312;2023-02-01T16:29:30;11.00;94.90
31729;DHT22;18309;43.658;1.312;2023-02-01T16:31:56;11.00;95.00
31729;DHT22;18309;43.658;1.312;2023-02-01T16:34:21;11.00;94.70
31729;DHT22;18309;43.658;1.312;2023-02-01T16:36:48;11.00;95.00
31729;DHT22;18309;43.658;1.312;2023-02-01T16:39:19;10.90;95.20
31729;DHT22;18309;43.658;1.312;2023-02-01T16:41:45;10.90;94.20
31729;DHT22;18309;43.658;1.312;2023-02-01T16:44:11;10.90;94.30
31729;DHT22;18309;43.658;1.312;2023-02-01T16:46:42;10.90;94.40
31729;DHT22;18309;43.658;1.312;2023-02-01T16:49:28;10.90;94.30
31729;DHT22;18309;43.658;1.312;2023-02-01T16:51:57;10.90;94.60
31729;DHT22;18309;43.658;1.312;2023-02-01T16:54:23;10.90;94.80
31729;DHT22;18309;43.658;1.312;2023-02-01T16:56:50;10.80;94.40
31729;DHT22;18309;43.658;1.312;2023-02-01T16:59:15;10.80;94.30
31729;DHT22;18309;43.658;1.312;2023-02-01T17:01:44;10.80;94.10
31729;DHT22;18309;43.658;1.312;2023-02-01T17:04:10;10.70;94.10
31729;DHT22;18309;43.658;1.312;2023-02-01T17:06:36;10.70;94.30
31729;DHT22;18309;43.658;1.312;2023-02-01T17:09:03;10.70;94.40
31729;DHT22;18309;43.658;1.312;2023-02-01T17:11:30;10.70;94.50
31729;DHT22;18309;43.658;1.312;2023-02-01T17:14:13;10.60;94.60
31729;DHT22;18309;43.658;1.312;2023-02-01T17:16:40;10.60;94.90
31729;DHT22;18309;43.658;1.312;2023-02-01T17:19:20;10.50;94.90
31729;DHT22;18309;43.658;1.312;2023-02-01T17:21:50;10.50;95.00
31729;DHT22;18309;43.658;1.312;2023-02-01T17:24:20;10.40;94.90
31729;DHT22;18309;43.658;1.312;2023-02-01T17:26:46;10.40;94.90
31729;DHT22;18309;43.658;1.312;2023-02-01T17:29:15;10.30;94.90
31729;DHT22;18309;43.658;1.312;2023-02-01T17:31:45;10.30;95.10
31729;DHT22;18309;43.658;1.312;2023-02-01T17:34:16;10.20;95.30
31729;DHT22;18309;43.658;1.312;2023-02-01T17:36:43;10.20;95.20
31729;DHT22;18309;43.658;1.312;2023-02-01T17:39:09;10.10;95.10
31729;DHT22;18309;43.658;1.312;2023-02-01T17:41:35;10.10;95.30
31729;DHT22;18309;43.658;1.312;2023-02-01T17:44:02;10.00;95.50
31729;DHT22;18309;43.658;1.312;2023-02-01T17:46:30;9.90;95.50
31729;DHT22;18309;43.658;1.312;2023-02-01T17:48:55;9.90;96.00
31729;DHT22;18309;43.658;1.312;2023-02-01T17:51:26;9.90;95.70
31729;DHT22;18309;43.658;1.312;2023-02-01T17:53:57;9.80;95.60
31729;DHT22;18309;43.658;1.312;2023-02-01T17:56:24;9.80;95.70
31729;DHT22;18309;43.658;1.312;2023-02-01T17:58:50;9.70;96.00
31729;DHT22;18309;43.658;1.312;2023-02-01T18:01:23;9.70;95.80
31729;DHT22;18309;43.658;1.312;2023-02-01T18:03:49;9.70;95.80
31729;DHT22;18309;43.658;1.312;2023-02-01T18:06:21;9.60;95.90
31729;DHT22;18309;43.658;1.312;2023-02-01T18:08:49;9.60;95.80
31729;DHT22;18309;43.658;1.312;2023-02-01T18:11:17;9.50;95.90
31729;DHT22;18309;43.658;1.312;2023-02-01T18:13:44;9.50;95.90
31729;DHT22;18309;43.658;1.312;2023-02-01T18:16:22;9.50;96.00
31729;DHT22;18309;43.658;1.312;2023-02-01T18:18:48;9.40;95.90
31729;DHT22;18309;43.658;1.312;2023-02-01T18:21:19;9.40;96.00
31729;DHT22;18309;43.658;1.312;2023-02-01T18:23:51;9.30;96.10
31729;DHT22;18309;43.658;1.312;2023-02-01T18:26:17;9.30;96.10
31729;DHT22;18309;43.658;1.312;2023-02-01T18:28:43;9.20;96.10
31729;DHT22;18309;43.658;1.312;2023-02-01T18:31:25;9.20;96.20
31729;DHT22;18309;43.658;1.312;2023-02-01T18:33:52;9.20;96.40
31729;DHT22;18309;43.658;1.312;2023-02-01T18:36:19;9.20;96.30
31729;DHT22;18309;43.658;1.312;2023-02-01T18:38:45;9.10;96.20
31729;DHT22;18309;43.658;1.312;2023-02-01T18:41:14;9.10;96.40
31729;DHT22;18309;43.658;1.312;2023-02-01T18:43:40;9.10;96.40
31729;DHT22;18309;43.658;1.312;2023-02-01T18:46:08;9.10;96.50
31729;DHT22;18309;43.658;1.312;2023-02-01T18:48:34;9.10;96.70
31729;DHT22;18309;43.658;1.312;2023-02-01T18:51:00;9.00;96.50
31729;DHT22;18309;43.658;1.312;2023-02-01T18:53:26;9.00;96.70
31729;DHT22;18309;43.658;1.312;2023-02-01T18:55:53;9.00;96.70
31729;DHT22;18309;43.658;1.312;2023-02-01T18:58:19;9.00;96.70
31729;DHT22;18309;43.658;1.312;2023-02-01T19:00:46;8.90;96.70
31729;DHT22;18309;43.658;1.312;2023-02-01T19:03:15;8.90;96.80
31729;DHT22;18309;43.658;1.312;2023-02-01T19:05:41;8.90;96.80
31729;DHT22;18309;43.658;1.312;2023-02-01T19:08:07;8.80;96.80
31729;DHT22;18309;43.658;1.312;2023-02-01T19:10:33;8.90;97.10
31729;DHT22;18309;43.658;1.312;2023-02-01T19:13:00;8.80;96.80
31729;DHT22;18309;43.658;1.312;2023-02-01T19:15:26;8.80;97.00
31729;DHT22;18309;43.658;1.312;2023-02-01T19:17:53;8.80;97.00
31729;DHT22;18309;43.658;1.312;2023-02-01T19:20:21;8.80;97.10